sensor_id;sensor_type;location;lat;lon;timestamp;temperature;humidity
61016;DHT22;46902;52.920;6.536;2023-05-16T00:00:21;10.70;99.90
61016;DHT22;46902;52.920;6.536;2023-05-16T00:02:49;10.70;99.90
61016;DHT22;46902;52.920;6.536;2023-05-16T00:05:15;10.60;99.90
61016;DHT22;46902;52.920;6.536;2023-05-16T00:07:43;10.60;99.90
61016;DHT22;46902;52.920;6.536;2023-05-16T00:10:09;10.60;99.90
61016;DHT22;46902;52.920;6.536;2023-05-16T00:12:36;10.60;99.90
61016;DHT22;46902;52.920;6.536;2023-05-16T00:15:06;10.50;99.90
61016;DHT22;46902;52.920;6.536;2023-05-16T00:17:34;10.50;99.90
61016;DHT22;46902;52.920;6.536;2023-05-16T00:20:04;10.40;99.90
61016;DHT22;46902;52.920;6.536;2023-05-16T00:22:32;10.40;99.90
61016;DHT22;46902;52.920;6.536;2023-05-16T00:24:57;10.40;99.90
61016;DHT22;46902;52.920;6.536;2023-05-16T00:27:23;10.40;99.90
61016;DHT22;46902;52.920;6.536;2023-05-16T00:29:49;10.30;99.90
61016;DHT22;46902;52.920;6.536;2023-05-16T00:32:14;10.30;99.90
61016;DHT22;46902;52.920;6.536;2023-05-16T00:34:40;10.30;99.90
61016;DHT22;46902;52.920;6.536;2023-05-16T00:37:06;10.30;99.90
61016;DHT22;46902;52.920;6.536;2023-05-16T00:39:31;10.20;99.90
61016;DHT22;46902;52.920;6.536;2023-05-16T00:41:57;10.20;99.90
61016;DHT22;46902;52.920;6.536;2023-05-16T00:44:22;10.10;99.90
61016;DHT22;46902;52.920;6.536;2023-05-16T00:46:48;10.10;99.90
61016;DHT22;46902;52.920;6.536;2023-05-16T00:49:14;10.10;99.90
61016;DHT22;46902;52.920;6.536;2023-05-16T00:51:40;10.00;99.90
61016;DHT22;46902;52.920;6.536;2023-05-16T00:54:06;10.00;99.90
61016;DHT22;46902;52.920;6.536;2023-05-16T00:56:32;10.00;99.90
61016;DHT22;46902;52.920;6.536;2023-05-16T00:58:58;10.00;99.90
61016;DHT22;46902;52.920;6.536;2023-05-16T01:01:24;9.90;99.90
61016;DHT22;46902;52.920;6.536;2023-05-16T01:03:52;9.90;99.90
61016;DHT22;46902;52.920;6.536;2023-05-16T01:06:18;9.90;99.90
61016;DHT22;46902;52.920;6.536;2023-05-16T01:08:44;9.90;99.90
61016;DHT22;46902;52.920;6.536;2023-05-16T01:17:07;9.70;99.90
61016;DHT22;46902;52.920;6.536;2023-05-16T01:20:08;9.80;99.90
61016;DHT22;46902;52.920;6.536;2023-05-16T01:22:57;9.70;99.90
61016;DHT22;46902;52.920;6.536;2023-05-16T01:25:42;9.70;99.90
61016;DHT22;46902;52.920;6.536;2023-05-16T01:28:08;9.70;99.90
61016;DHT22;46902;52.920;6.536;2023-05-16T01:30:38;9.60;99.90
61016;DHT22;46902;52.920;6.536;2023-05-16T01:33:05;9.60;99.90
61016;DHT22;46902;52.920;6.536;2023-05-16T01:35:31;9.60;99.90
61016;DHT22;46902;52.920;6.536;2023-05-16T01:40:51;9.50;99.90
61016;DHT22;46902;52.920;6.536;2023-05-16T01:43:28;9.50;99.90
61016;DHT22;46902;52.920;6.536;2023-05-16T01:46:01;9.50;99.90
61016;DHT22;46902;52.920;6.536;2023-05-16T01:48:34;9.50;99.90
61016;DHT22;46902;52.920;6.536;2023-05-16T01:51:02;9.50;99.90
61016;DHT22;46902;52.920;6.536;2023-05-16T01:53:36;9.50;99.90
61016;DHT22;46902;52.920;6.536;2023-05-16T01:56:03;9.50;99.90
61016;DHT22;46902;52.920;6.536;2023-05-16T01:58:33;9.50;99.90
61016;DHT22;46902;52.920;6.536;2023-05-16T02:01:02;9.50;99.90
61016;DHT22;46902;52.920;6.536;2023-05-16T02:03:29;9.50;99.90
61016;DHT22;46902;52.920;6.536;2023-05-16T02:05:55;9.50;99.90
61016;DHT22;46902;52.920;6.536;2023-05-16T02:08:21;9.40;99.90
61016;DHT22;46902;52.920;6.536;2023-05-16T02:10:46;9.40;99.90
61016;DHT22;46902;52.920;6.536;2023-05-16T02:13:12;9.30;99.90
61016;DHT22;46902;52.920;6.536;2023-05-16T02:15:37;9.30;99.90
61016;DHT22;46902;52.920;6.536;2023-05-16T02:18:03;9.30;99.90
61016;DHT22;46902;52.920;6.536;2023-05-16T02:20:29;9.30;99.90
61016;DHT22;46902;52.920;6.536;2023-05-16T02:22:55;9.20;99.90
61016;DHT22;46902;52.920;6.536;2023-05-16T02:25:21;9.20;99.90
61016;DHT22;46902;52.920;6.536;2023-05-16T02:27:46;9.20;99.90
61016;DHT22;46902;52.920;6.536;2023-05-16T02:30:12;9.30;99.90
61016;DHT22;46902;52.920;6.536;2023-05-16T02:32:41;9.30;99.90
61016;DHT22;46902;52.920;6.536;2023-05-16T02:35:09;9.40;99.90
61016;DHT22;46902;52.920;6.536;2023-05-16T02:37:35;9.40;99.90
61016;DHT22;46902;52.920;6.536;2023-05-16T02:40:02;9.40;99.90
61016;DHT22;46902;52.920;6.536;2023-05-16T02:42:30;9.30;99.90
61016;DHT22;46902;52.920;6.536;2023-05-16T02:44:56;9.30;99.90
61016;DHT22;46902;52.920;6.536;2023-05-16T02:47:22;9.30;99.90
61016;DHT22;46902;52.920;6.536;2023-05-16T02:49:47;9.20;99.90
61016;DHT22;46902;52.920;6.536;2023-05-16T02:52:13;9.20;99.90
61016;DHT22;46902;52.920;6.536;2023-05-16T02:54:39;9.10;99.90
61016;DHT22;46902;52.920;6.536;2023-05-16T02:57:04;9.10;99.90
61016;DHT22;46902;52.920;6.536;2023-05-16T02:59:30;9.00;99.90
61016;DHT22;46902;52.920;6.536;2023-05-16T03:01:56;9.00;99.90
61016;DHT22;46902;52.920;6.536;2023-05-16T03:04:21;9.00;99.90
61016;DHT22;46902;52.920;6.536;2023-05-16T03:06:48;8.90;99.90
61016;DHT22;46902;52.920;6.536;2023-05-16T03:09:15;8.80;99.90
61016;DHT22;46902;52.920;6.536;2023-05-16T03:11:41;8.80;99.90
61016;DHT22;46902;52.920;6.536;2023-05-16T03:14:06;8.80;99.90
61016;DHT22;46902;52.920;6.536;2023-05-16T03:16:32;8.70;99.90
61016;DHT22;46902;52.920;6.536;2023-05-16T03:18:58;8.70;99.90
61016;DHT22;46902;52.920;6.536;2023-05-16T03:21:24;8.70;99.90
61016;DHT22;46902;52.920;6.536;2023-05-16T03:23:50;8.70;99.90
61016;DHT22;46902;52.920;6.536;2023-05-16T03:26:15;8.60;99.90
61016;DHT22;46902;52.920;6.536;2023-05-16T03:28:41;8.60;99.90
61016;DHT22;46902;52.920;6.536;2023-05-16T03:31:07;8.50;99.90
61016;DHT22;46902;52.920;6.536;2023-05-16T03:33:32;8.60;99.90
61016;DHT22;46902;52.920;6.536;2023-05-16T03:35:58;8.50;99.90
61016;DHT22;46902;52.920;6.536;2023-05-16T03:38:23;8.50;99.90
61016;DHT22;46902;52.920;6.536;2023-05-16T03:40:49;8.50;99.90
61016;DHT22;46902;52.920;6.536;2023-05-16T03:43:15;8.50;99.90
61016;DHT22;46902;52.920;6.536;2023-05-16T03:45:41;8.50;99.90
61016;DHT22;46902;52.920;6.536;2023-05-16T03:48:08;8.50;99.90
61016;DHT22;46902;52.920;6.536;2023-05-16T03:50:34;8.40;99.90
61016;DHT22;46902;52.920;6.536;2023-05-16T03:53:01;8.40;99.90
61016;DHT22;46902;52.920;6.536;2023-05-16T03:55:28;8.30;99.90
61016;DHT22;46902;52.920;6.536;2023-05-16T03:57:55;8.30;99.90
61016;DHT22;46902;52.920;6.536;2023-05-16T04:00:21;8.30;99.90
61016;DHT22;46902;52.920;6.536;2023-05-16T04:02:46;8.30;99.90
61016;DHT22;46902;52.920;6.536;2023-05-16T04:05:12;8.40;99.90
61016;DHT22;46902;52.920;6.536;2023-05-16T04:07:39;8.40;99.90
61016;DHT22;46902;52.920;6.536;2023-05-16T04:10:06;8.40;99.90
61016;DHT22;46902;52.920;6.536;2023-05-16T04:12:31;8.40;99.90
61016;DHT22;46902;52.920;6.536;2023-05-16T04:14:57;8.40;99.90
61016;DHT22;46902;52.920;6.536;2023-05-16T04:17:23;8.40;99.90
61016;DHT22;46902;52.920;6.536;2023-05-16T04:19:48;8.40;99.90
61016;DHT22;46902;52.920;6.536;2023-05-16T04:22:14;8.40;99.90
61016;DHT22;46902;52.920;6.536;2023-05-16T04:24:40;8.40;99.90
61016;DHT22;46902;52.920;6.536;2023-05-16T04:27:06;8.50;99.90
61016;DHT22;46902;52.920;6.536;2023-05-16T04:29:35;8.50;99.90
61016;DHT22;46902;52.920;6.536;2023-05-16T04:32:00;8.50;99.90
61016;DHT22;46902;52.920;6.536;2023-05-16T04:34:26;8.50;99.90
61016;DHT22;46902;52.920;6.536;2023-05-16T04:36:53;8.50;99.90
61016;DHT22;46902;52.920;6.536;2023-05-16T04:39:19;8.50;99.90
61016;DHT22;46902;52.920;6.536;2023-05-16T04:41:45;8.50;99.90
61016;DHT22;46902;52.920;6.536;2023-05-16T04:44:11;8.50;99.90
61016;DHT22;46902;52.920;6.536;2023-05-16T04:46:36;8.50;99.90
61016;DHT22;46902;52.920;6.536;2023-05-16T04:49:02;8.50;99.90
61016;DHT22;46902;52.920;6.536;2023-05-16T04:51:28;8.60;99.90
61016;DHT22;46902;52.920;6.536;2023-05-16T04:53:54;8.60;99.90
61016;DHT22;46902;52.920;6.536;2023-05-16T04:56:19;8.60;99.90
61016;DHT22;46902;52.920;6.536;2023-05-16T04:58:45;8.70;99.90
61016;DHT22;46902;52.920;6.536;2023-05-16T05:01:11;8.70;99.90
61016;DHT22;46902;52.920;6.536;2023-05-16T05:03:37;8.80;99.90
61016;DHT22;46902;52.920;6.536;2023-05-16T05:06:02;8.80;99.90
61016;DHT22;46902;52.920;6.536;2023-05-16T05:08:29;8.80;99.90
61016;DHT22;46902;52.920;6.536;2023-05-16T05:10:55;8.80;99.90
61016;DHT22;46902;52.920;6.536;2023-05-16T05:13:21;8.90;99.90
61016;DHT22;46902;52.920;6.536;2023-05-16T05:15:46;8.90;99.90
61016;DHT22;46902;52.920;6.536;2023-05-16T05:18:12;8.90;99.90
61016;DHT22;46902;52.920;6.536;2023-05-16T05:20:37;9.00;99.90
61016;DHT22;46902;52.920;6.536;2023-05-16T05:23:03;9.00;99.90
61016;DHT22;46902;52.920;6.536;2023-05-16T05:25:29;9.10;99.90
61016;DHT22;46902;52.920;6.536;2023-05-16T05:27:54;9.20;99.90
61016;DHT22;46902;52.920;6.536;2023-05-16T05:30:20;9.30;99.90
61016;DHT22;46902;52.920;6.536;2023-05-16T05:32:45;9.40;99.90
61016;DHT22;46902;52.920;6.536;2023-05-16T05:35:11;9.50;99.90
61016;DHT22;46902;52.920;6.536;2023-05-16T05:37:37;9.50;99.90
61016;DHT22;46902;52.920;6.536;2023-05-16T05:40:03;9.60;99.90
61016;DHT22;46902;52.920;6.536;2023-05-16T05:42:28;9.60;99.90
61016;DHT22;46902;52.920;6.536;2023-05-16T05:44:54;9.70;99.90
61016;DHT22;46902;52.920;6.536;2023-05-16T05:47:20;9.70;99.90
61016;DHT22;46902;52.920;6.536;2023-05-16T05:49:46;9.80;99.90
61016;DHT22;46902;52.920;6.536;2023-05-16T05:52:12;9.90;99.90
61016;DHT22;46902;52.920;6.536;2023-05-16T05:54:40;9.90;99.90
61016;DHT22;46902;52.920;6.536;2023-05-16T05:57:05;10.00;99.90
61016;DHT22;46902;52.920;6.536;2023-05-16T05:59:31;10.00;99.90
61016;DHT22;46902;52.920;6.536;2023-05-16T06:01:56;10.10;99.90
61016;DHT22;46902;52.920;6.536;2023-05-16T06:04:23;10.20;99.90
61016;DHT22;46902;52.920;6.536;2023-05-16T06:06:49;10.20;99.90
61016;DHT22;46902;52.920;6.536;2023-05-16T06:09:14;10.20;99.90
61016;DHT22;46902;52.920;6.536;2023-05-16T06:11:41;10.20;99.90
61016;DHT22;46902;52.920;6.536;2023-05-16T06:14:07;10.20;99.90
61016;DHT22;46902;52.920;6.536;2023-05-16T06:16:33;10.30;99.90
61016;DHT22;46902;52.920;6.536;2023-05-16T06:18:59;10.30;99.90
61016;DHT22;46902;52.920;6.536;2023-05-16T06:21:25;10.40;99.90
61016;DHT22;46902;52.920;6.536;2023-05-16T06:23:50;10.40;99.90
61016;DHT22;46902;52.920;6.536;2023-05-16T06:26:16;10.50;99.90
61016;DHT22;46902;52.920;6.536;2023-05-16T06:28:41;10.50;99.90
61016;DHT22;46902;52.920;6.536;2023-05-16T06:31:07;10.60;99.90
61016;DHT22;46902;52.920;6.536;2023-05-16T06:33:34;10.60;99.90
61016;DHT22;46902;52.920;6.536;2023-05-16T06:35:59;10.70;99.90
61016;DHT22;46902;52.920;6.536;2023-05-16T06:38:25;10.70;99.90
61016;DHT22;46902;52.920;6.536;2023-05-16T06:40:50;10.80;99.90
61016;DHT22;46902;52.920;6.536;2023-05-16T06:43:16;10.80;99.90
61016;DHT22;46902;52.920;6.536;2023-05-16T06:45:43;10.90;99.90
61016;DHT22;46902;52.920;6.536;2023-05-16T06:48:09;11.00;99.90
61016;DHT22;46902;52.920;6.536;2023-05-16T06:50:34;10.90;99.90
61016;DHT22;46902;52.920;6.536;2023-05-16T06:53:01;10.80;99.90
61016;DHT22;46902;52.920;6.536;2023-05-16T06:55:29;10.70;99.90
61016;DHT22;46902;52.920;6.536;2023-05-16T06:57:55;10.70;99.90
61016;DHT22;46902;52.920;6.536;2023-05-16T07:00:20;10.60;99.90
61016;DHT22;46902;52.920;6.536;2023-05-16T07:02:46;10.60;99.90
61016;DHT22;46902;52.920;6.536;2023-05-16T07:05:12;10.50;99.90
61016;DHT22;46902;52.920;6.536;2023-05-16T07:07:37;10.60;99.90
61016;DHT22;46902;52.920;6.536;2023-05-16T07:10:03;10.70;99.90
61016;DHT22;46902;52.920;6.536;2023-05-16T07:12:29;10.80;99.90
61016;DHT22;46902;52.920;6.536;2023-05-16T07:14:55;11.00;99.90
61016;DHT22;46902;52.920;6.536;2023-05-16T07:17:21;11.00;99.90
61016;DHT22;46902;52.920;6.536;2023-05-16T07:19:48;11.10;99.90
61016;DHT22;46902;52.920;6.536;2023-05-16T07:22:14;11.20;99.90
61016;DHT22;46902;52.920;6.536;2023-05-16T07:24:40;11.30;99.90
61016;DHT22;46902;52.920;6.536;2023-05-16T07:27:05;11.50;99.90
61016;DHT22;46902;52.920;6.536;2023-05-16T07:29:31;11.60;99.90
61016;DHT22;46902;52.920;6.536;2023-05-16T07:31:57;11.70;99.90
61016;DHT22;46902;52.920;6.536;2023-05-16T07:34:22;11.80;99.90
61016;DHT22;46902;52.920;6.536;2023-05-16T07:36:48;11.80;99.90
61016;DHT22;46902;52.920;6.536;2023-05-16T07:39:14;12.00;99.90
61016;DHT22;46902;52.920;6.536;2023-05-16T07:41:40;12.10;99.20
61016;DHT22;46902;52.920;6.536;2023-05-16T07:44:05;12.20;98.40
61016;DHT22;46902;52.920;6.536;2023-05-16T07:46:31;12.30;98.20
61016;DHT22;46902;52.920;6.536;2023-05-16T07:48:56;12.30;97.00
61016;DHT22;46902;52.920;6.536;2023-05-16T07:51:22;12.40;96.60
61016;DHT22;46902;52.920;6.536;2023-05-16T07:53:47;12.50;96.50
61016;DHT22;46902;52.920;6.536;2023-05-16T07:56:13;12.40;95.40
61016;DHT22;46902;52.920;6.536;2023-05-16T07:58:40;12.40;95.20
61016;DHT22;46902;52.920;6.536;2023-05-16T08:01:06;12.40;94.40
61016;DHT22;46902;52.920;6.536;2023-05-16T08:03:31;12.40;94.70
61016;DHT22;46902;52.920;6.536;2023-05-16T08:05:57;12.40;94.40
61016;DHT22;46902;52.920;6.536;2023-05-16T08:08:22;12.40;93.70
61016;DHT22;46902;52.920;6.536;2023-05-16T08:10:48;12.40;93.70
61016;DHT22;46902;52.920;6.536;2023-05-16T08:13:14;12.30;93.50
61016;DHT22;46902;52.920;6.536;2023-05-16T08:15:39;12.50;93.90
61016;DHT22;46902;52.920;6.536;2023-05-16T08:18:12;12.60;93.60
61016;DHT22;46902;52.920;6.536;2023-05-16T08:20:39;12.90;93.80
61016;DHT22;46902;52.920;6.536;2023-05-16T08:23:06;13.10;93.10
61016;DHT22;46902;52.920;6.536;2023-05-16T08:25:32;13.30;93.00
61016;DHT22;46902;52.920;6.536;2023-05-16T08:27:57;13.40;92.20
61016;DHT22;46902;52.920;6.536;2023-05-16T08:30:24;13.70;91.50
61016;DHT22;46902;52.920;6.536;2023-05-16T08:32:50;13.90;91.40
61016;DHT22;46902;52.920;6.536;2023-05-16T08:35:16;13.80;90.70
61016;DHT22;46902;52.920;6.536;2023-05-16T08:37:41;13.80;90.40
61016;DHT22;46902;52.920;6.536;2023-05-16T08:40:09;13.80;90.60
61016;DHT22;46902;52.920;6.536;2023-05-16T08:42:35;13.90;90.00
61016;DHT22;46902;52.920;6.536;2023-05-16T08:45:02;14.20;88.60
61016;DHT22;46902;52.920;6.536;2023-05-16T08:47:30;14.30;85.80
61016;DHT22;46902;52.920;6.536;2023-05-16T08:49:56;14.30;83.80
61016;DHT22;46902;52.920;6.536;2023-05-16T08:52:26;14.60;83.40
61016;DHT22;46902;52.920;6.536;2023-05-16T08:54:56;14.70;80.70
61016;DHT22;46902;52.920;6.536;2023-05-16T08:57:24;14.60;78.80
61016;DHT22;46902;52.920;6.536;2023-05-16T08:59:50;14.50;78.10
61016;DHT22;46902;52.920;6.536;2023-05-16T09:02:19;14.50;78.30
61016;DHT22;46902;52.920;6.536;2023-05-16T09:04:47;14.40;76.70
61016;DHT22;46902;52.920;6.536;2023-05-16T09:07:13;14.50;77.20
61016;DHT22;46902;52.920;6.536;2023-05-16T09:09:38;14.80;78.10
61016;DHT22;46902;52.920;6.536;2023-05-16T09:12:06;15.00;76.90
61016;DHT22;46902;52.920;6.536;2023-05-16T09:14:32;14.80;75.80
61016;DHT22;46902;52.920;6.536;2023-05-16T09:17:05;14.60;76.60
61016;DHT22;46902;52.920;6.536;2023-05-16T09:19:42;14.40;76.50
61016;DHT22;46902;52.920;6.536;2023-05-16T09:22:13;14.10;76.40
61016;DHT22;46902;52.920;6.536;2023-05-16T09:24:40;14.10;77.90
61016;DHT22;46902;52.920;6.536;2023-05-16T09:27:10;14.30;78.10
61016;DHT22;46902;52.920;6.536;2023-05-16T09:29:36;14.50;78.30
61016;DHT22;46902;52.920;6.536;2023-05-16T09:32:15;14.80;77.90
61016;DHT22;46902;52.920;6.536;2023-05-16T09:34:48;15.20;76.20
61016;DHT22;46902;52.920;6.536;2023-05-16T09:37:16;15.30;76.60
61016;DHT22;46902;52.920;6.536;2023-05-16T09:39:52;15.30;75.70
61016;DHT22;46902;52.920;6.536;2023-05-16T09:42:20;15.20;74.80
61016;DHT22;46902;52.920;6.536;2023-05-16T09:44:50;15.10;74.40
61016;DHT22;46902;52.920;6.536;2023-05-16T09:47:17;15.30;73.40
61016;DHT22;46902;52.920;6.536;2023-05-16T09:49:44;15.30;71.90
61016;DHT22;46902;52.920;6.536;2023-05-16T09:52:11;15.20;71.00
61016;DHT22;46902;52.920;6.536;2023-05-16T09:54:37;15.10;72.00
61016;DHT22;46902;52.920;6.536;2023-05-16T09:57:03;15.20;72.00
61016;DHT22;46902;52.920;6.536;2023-05-16T09:59:29;15.40;71.30
61016;DHT22;46902;52.920;6.536;2023-05-16T10:01:57;15.50;71.50
61016;DHT22;46902;52.920;6.536;2023-05-16T10:04:23;15.40;73.10
61016;DHT22;46902;52.920;6.536;2023-05-16T10:06:50;15.10;74.70
61016;DHT22;46902;52.920;6.536;2023-05-16T10:09:20;14.90;75.90
61016;DHT22;46902;52.920;6.536;2023-05-16T10:11:47;15.00;77.70
61016;DHT22;46902;52.920;6.536;2023-05-16T10:14:17;15.30;78.10
61016;DHT22;46902;52.920;6.536;2023-05-16T10:16:46;15.70;77.60
61016;DHT22;46902;52.920;6.536;2023-05-16T10:19:13;15.90;76.00
61016;DHT22;46902;52.920;6.536;2023-05-16T10:21:52;16.20;75.40
61016;DHT22;46902;52.920;6.536;2023-05-16T10:24:27;16.40;73.50
61016;DHT22;46902;52.920;6.536;2023-05-16T10:26:53;16.70;72.20
61016;DHT22;46902;52.920;6.536;2023-05-16T10:29:19;16.90;71.70
61016;DHT22;46902;52.920;6.536;2023-05-16T10:31:47;17.10;69.80
61016;DHT22;46902;52.920;6.536;2023-05-16T10:34:13;16.90;68.60
61016;DHT22;46902;52.920;6.536;2023-05-16T10:36:39;16.90;65.50
61016;DHT22;46902;52.920;6.536;2023-05-16T10:39:05;16.90;65.50
61016;DHT22;46902;52.920;6.536;2023-05-16T10:41:33;16.90;65.70
61016;DHT22;46902;52.920;6.536;2023-05-16T10:43:59;16.80;66.40
61016;DHT22;46902;52.920;6.536;2023-05-16T10:46:26;16.80;66.90
61016;DHT22;46902;52.920;6.536;2023-05-16T10:48:55;16.60;66.00
61016;DHT22;46902;52.920;6.536;2023-05-16T10:53:47;16.30;66.10
61016;DHT22;46902;52.920;6.536;2023-05-16T10:56:12;16.30;66.60
61016;DHT22;46902;52.920;6.536;2023-05-16T10:58:41;16.20;66.80
61016;DHT22;46902;52.920;6.536;2023-05-16T11:01:28;16.00;65.60
61016;DHT22;46902;52.920;6.536;2023-05-16T11:06:24;15.70;66.00
61016;DHT22;46902;52.920;6.536;2023-05-16T11:11:58;15.80;67.00
61016;DHT22;46902;52.920;6.536;2023-05-16T11:19:30;16.30;67.90
61016;DHT22;46902;52.920;6.536;2023-05-16T11:27:25;16.60;66.60
61016;DHT22;46902;52.920;6.536;2023-05-16T11:29:51;16.60;65.70
61016;DHT22;46902;52.920;6.536;2023-05-16T11:32:22;16.60;65.80
61016;DHT22;46902;52.920;6.536;2023-05-16T11:34:49;16.70;66.00
61016;DHT22;46902;52.920;6.536;2023-05-16T11:37:15;16.70;65.00
61016;DHT22;46902;52.920;6.536;2023-05-16T11:39:41;16.90;65.20
61016;DHT22;46902;52.920;6.536;2023-05-16T11:42:07;17.10;64.40
61016;DHT22;46902;52.920;6.536;2023-05-16T11:44:34;17.30;63.80
61016;DHT22;46902;52.920;6.536;2023-05-16T11:46:59;17.50;63.20
61016;DHT22;46902;52.920;6.536;2023-05-16T11:49:27;17.50;62.90
61016;DHT22;46902;52.920;6.536;2023-05-16T11:51:53;17.30;62.70
61016;DHT22;46902;52.920;6.536;2023-05-16T11:54:21;17.20;63.20
61016;DHT22;46902;52.920;6.536;2023-05-16T11:56:47;16.90;64.10
61016;DHT22;46902;52.920;6.536;2023-05-16T11:59:14;16.60;64.10
61016;DHT22;46902;52.920;6.536;2023-05-16T12:01:40;16.20;65.80
61016;DHT22;46902;52.920;6.536;2023-05-16T12:04:09;15.90;68.70
61016;DHT22;46902;52.920;6.536;2023-05-16T12:06:37;15.60;68.50
61016;DHT22;46902;52.920;6.536;2023-05-16T12:09:04;15.50;69.30
61016;DHT22;46902;52.920;6.536;2023-05-16T12:11:39;15.90;70.50
61016;DHT22;46902;52.920;6.536;2023-05-16T12:14:06;16.00;71.20
61016;DHT22;46902;52.920;6.536;2023-05-16T12:16:32;15.90;71.00
61016;DHT22;46902;52.920;6.536;2023-05-16T12:18:59;16.00;72.00
61016;DHT22;46902;52.920;6.536;2023-05-16T12:21:26;15.90;72.50
61016;DHT22;46902;52.920;6.536;2023-05-16T12:23:55;15.70;73.90
61016;DHT22;46902;52.920;6.536;2023-05-16T12:26:30;15.50;76.70
61016;DHT22;46902;52.920;6.536;2023-05-16T12:29:00;15.40;79.10
61016;DHT22;46902;52.920;6.536;2023-05-16T12:31:28;15.70;80.40
61016;DHT22;46902;52.920;6.536;2023-05-16T12:33:55;15.70;80.40
61016;DHT22;46902;52.920;6.536;2023-05-16T12:36:22;15.70;79.80
61016;DHT22;46902;52.920;6.536;2023-05-16T12:38:49;15.50;79.00
61016;DHT22;46902;52.920;6.536;2023-05-16T12:41:20;15.40;79.30
61016;DHT22;46902;52.920;6.536;2023-05-16T12:43:50;15.80;82.10
61016;DHT22;46902;52.920;6.536;2023-05-16T12:46:18;16.10;80.40
61016;DHT22;46902;52.920;6.536;2023-05-16T12:48:44;16.20;77.40
61016;DHT22;46902;52.920;6.536;2023-05-16T12:53:45;16.00;74.70
61016;DHT22;46902;52.920;6.536;2023-05-16T12:56:12;15.90;74.30
61016;DHT22;46902;52.920;6.536;2023-05-16T12:58:38;15.80;73.90
61016;DHT22;46902;52.920;6.536;2023-05-16T13:01:04;15.90;73.70
61016;DHT22;46902;52.920;6.536;2023-05-16T13:03:30;16.10;72.60
61016;DHT22;46902;52.920;6.536;2023-05-16T13:05:57;16.20;72.10
61016;DHT22;46902;52.920;6.536;2023-05-16T13:08:23;16.20;70.90
61016;DHT22;46902;52.920;6.536;2023-05-16T13:10:49;16.10;70.00
61016;DHT22;46902;52.920;6.536;2023-05-16T13:13:15;16.00;70.10
61016;DHT22;46902;52.920;6.536;2023-05-16T13:15:41;15.90;68.80
61016;DHT22;46902;52.920;6.536;2023-05-16T13:18:07;15.90;69.20
61016;DHT22;46902;52.920;6.536;2023-05-16T13:20:33;15.70;68.50
61016;DHT22;46902;52.920;6.536;2023-05-16T13:22:59;15.70;68.30
61016;DHT22;46902;52.920;6.536;2023-05-16T13:25:25;15.70;69.30
61016;DHT22;46902;52.920;6.536;2023-05-16T13:27:50;15.60;68.40
61016;DHT22;46902;52.920;6.536;2023-05-16T13:30:16;15.60;68.80
61016;DHT22;46902;52.920;6.536;2023-05-16T13:32:42;15.60;69.80
61016;DHT22;46902;52.920;6.536;2023-05-16T13:35:08;15.90;70.00
61016;DHT22;46902;52.920;6.536;2023-05-16T13:37:35;16.30;69.60
61016;DHT22;46902;52.920;6.536;2023-05-16T13:40:02;16.40;68.20
61016;DHT22;46902;52.920;6.536;2023-05-16T13:42:29;16.30;67.70
61016;DHT22;46902;52.920;6.536;2023-05-16T13:45:00;16.20;67.40
61016;DHT22;46902;52.920;6.536;2023-05-16T13:47:26;16.10;67.20
61016;DHT22;46902;52.920;6.536;2023-05-16T13:49:51;15.90;67.40
61016;DHT22;46902;52.920;6.536;2023-05-16T13:52:17;15.90;67.80
61016;DHT22;46902;52.920;6.536;2023-05-16T13:54:42;15.80;68.20
61016;DHT22;46902;52.920;6.536;2023-05-16T13:57:08;15.80;68.20
61016;DHT22;46902;52.920;6.536;2023-05-16T13:59:34;15.80;68.00
61016;DHT22;46902;52.920;6.536;2023-05-16T14:01:59;15.70;68.00
61016;DHT22;46902;52.920;6.536;2023-05-16T14:04:25;15.60;67.80
61016;DHT22;46902;52.920;6.536;2023-05-16T14:06:51;15.60;68.30
61016;DHT22;46902;52.920;6.536;2023-05-16T14:09:16;15.70;68.70
61016;DHT22;46902;52.920;6.536;2023-05-16T14:11:43;15.90;68.60
61016;DHT22;46902;52.920;6.536;2023-05-16T14:14:08;16.00;68.60
61016;DHT22;46902;52.920;6.536;2023-05-16T14:16:34;16.00;67.80
61016;DHT22;46902;52.920;6.536;2023-05-16T14:18:59;15.80;67.60
61016;DHT22;46902;52.920;6.536;2023-05-16T14:21:25;15.70;67.80
61016;DHT22;46902;52.920;6.536;2023-05-16T14:23:51;15.60;69.00
61016;DHT22;46902;52.920;6.536;2023-05-16T14:26:17;15.30;70.70
61016;DHT22;46902;52.920;6.536;2023-05-16T14:28:47;15.10;72.40
61016;DHT22;46902;52.920;6.536;2023-05-16T14:31:12;14.80;73.90
61016;DHT22;46902;52.920;6.536;2023-05-16T14:33:38;14.50;76.30
61016;DHT22;46902;52.920;6.536;2023-05-16T14:36:06;14.40;78.20
61016;DHT22;46902;52.920;6.536;2023-05-16T14:38:32;14.30;79.70
61016;DHT22;46902;52.920;6.536;2023-05-16T14:40:57;14.20;79.60
61016;DHT22;46902;52.920;6.536;2023-05-16T14:43:23;14.40;80.90
61016;DHT22;46902;52.920;6.536;2023-05-16T14:45:48;14.80;81.00
61016;DHT22;46902;52.920;6.536;2023-05-16T14:48:14;15.00;79.40
61016;DHT22;46902;52.920;6.536;2023-05-16T14:50:41;15.20;78.70
61016;DHT22;46902;52.920;6.536;2023-05-16T14:53:07;15.40;78.20
61016;DHT22;46902;52.920;6.536;2023-05-16T14:55:33;15.50;77.60
61016;DHT22;46902;52.920;6.536;2023-05-16T14:57:58;15.50;76.50
61016;DHT22;46902;52.920;6.536;2023-05-16T15:00:24;15.40;76.50
61016;DHT22;46902;52.920;6.536;2023-05-16T15:02:50;15.30;76.80
61016;DHT22;46902;52.920;6.536;2023-05-16T15:05:16;15.20;77.00
61016;DHT22;46902;52.920;6.536;2023-05-16T15:07:42;15.10;76.70
61016;DHT22;46902;52.920;6.536;2023-05-16T15:10:08;15.00;76.80
61016;DHT22;46902;52.920;6.536;2023-05-16T15:12:35;15.00;78.00
61016;DHT22;46902;52.920;6.536;2023-05-16T15:15:00;15.00;78.80
61016;DHT22;46902;52.920;6.536;2023-05-16T15:17:26;15.00;78.40
61016;DHT22;46902;52.920;6.536;2023-05-16T15:19:52;15.10;78.40
61016;DHT22;46902;52.920;6.536;2023-05-16T15:22:19;15.20;78.20
61016;DHT22;46902;52.920;6.536;2023-05-16T15:24:45;15.10;77.40
61016;DHT22;46902;52.920;6.536;2023-05-16T15:27:10;15.00;77.30
61016;DHT22;46902;52.920;6.536;2023-05-16T15:29:36;14.90;77.70
61016;DHT22;46902;52.920;6.536;2023-05-16T15:32:05;14.90;77.60
61016;DHT22;46902;52.920;6.536;2023-05-16T15:34:32;14.80;78.30
61016;DHT22;46902;52.920;6.536;2023-05-16T15:36:59;14.70;78.00
61016;DHT22;46902;52.920;6.536;2023-05-16T15:39:24;14.70;78.00
61016;DHT22;46902;52.920;6.536;2023-05-16T15:41:51;14.60;78.20
61016;DHT22;46902;52.920;6.536;2023-05-16T15:44:17;14.60;78.50
61016;DHT22;46902;52.920;6.536;2023-05-16T15:46:42;14.50;79.00
61016;DHT22;46902;52.920;6.536;2023-05-16T15:49:08;14.50;78.00
61016;DHT22;46902;52.920;6.536;2023-05-16T15:51:34;14.40;78.20
61016;DHT22;46902;52.920;6.536;2023-05-16T15:54:01;14.40;79.00
61016;DHT22;46902;52.920;6.536;2023-05-16T15:56:26;14.40;78.50
61016;DHT22;46902;52.920;6.536;2023-05-16T15:58:54;14.40;78.80
61016;DHT22;46902;52.920;6.536;2023-05-16T16:01:20;14.30;77.70